Data for 03/31/2016

Time Sea-Level Adjusted Pressure Absolute Pressure Temperature Relative Humidity Dew Point   
(mb) (inHg) (mb) (inHg) (C) (F) (%) (C) (F)
00:05 1017 30.03 846 24.98 2.9 37.2 88 1.1 34
00:10 1017 30.03 846 24.98 2.9 37.2 88 1.2 34.1
00:15 1017 30.03 846 24.98 2.9 37.3 89 1.2 34.2
00:20 1017 30.03 846 24.98 2.9 37.2 89 1.2 34.2
00:25 1017 30.03 846 24.98 2.9 37.2 89 1.3 34.3
00:30 1017 30.03 846 24.98 2.9 37.2 89 1.3 34.4
00:35 1017 30.03 846 24.98 2.9 37.3 90 1.4 34.5
00:40 1017 30.03 846 24.98 2.9 37.3 89 1.3 34.4
00:45 1017 30.03 846 24.98 2.9 37.2 90 1.4 34.5
00:50 1017 30.03 846 24.98 2.8 37.1 90 1.3 34.4
00:55 1017 30.03 846 24.98 2.8 37 90 1.3 34.3
01:00 1017 30.03 846 24.98 2.8 37 90 1.3 34.3
01:05 1017 30.03 846 24.98 2.8 37 90 1.4 34.5
01:10 1017 30.03 846 24.98 2.9 37.1 90 1.4 34.6
01:15 1017 30.03 846 24.98 2.9 37.2 90 1.5 34.7
01:20 1017 30.03 846 24.98 2.9 37.2 90 1.4 34.6
01:25 1017 30.03 846 24.98 2.9 37.2 90 1.5 34.6
01:30 1017 30.03 846 24.98 2.9 37.1 90 1.4 34.5
01:35 1017 30.03 846 24.98 2.9 37.1 90 1.4 34.5
01:40 1017 30.03 846 24.98 2.8 37 89 1.1 33.9
01:45 1017 30.03 846 24.98 2.8 37.1 88 1.1 34
01:50 1017 30.03 846 24.98 2.7 36.9 88 0.9 33.7
01:55 1017 30.03 846 24.98 2.5 36.5 89 0.8 33.4
02:00 1017 30.03 847 25.01 2.5 36.4 89 0.8 33.4
02:05 1017 30.03 847 25.01 2.5 36.5 87 0.6 33
02:10 1017 30.03 846 24.98 2.5 36.5 86 0.5 32.8
02:15 1017 30.03 846 24.98 2.6 36.6 85 0.3 32.6
02:20 1017 30.03 847 25.01 2.6 36.7 84 0.1 32.2
02:25 1017 30.03 847 25.01 2.6 36.7 81 -0.3 31.4
02:30 1017 30.03 847 25.01 2.7 36.8 81 -0.3 31.5
02:35 1018 30.06 847 25.01 2.6 36.8 81 -0.4 31.3
02:40 1018 30.06 847 25.01 2.6 36.7 81 -0.4 31.3
02:45 1018 30.06 847 25.01 2.6 36.7 79 -0.6 30.9
02:50 1018 30.06 847 25.01 2.6 36.6 79 -0.8 30.6
02:55 1017 30.03 847 25.01 2.5 36.6 78 -0.9 30.4
03:00 1017 30.03 847 25.01 2.5 36.5 79 -0.8 30.6
03:05 1017 30.03 847 25.01 2.5 36.5 79 -0.8 30.6
03:10 1018 30.06 847 25.01 2.4 36.4 80 -0.7 30.8
03:15 1018 30.06 847 25.01 2.4 36.3 81 -0.5 31
03:20 1018 30.06 847 25.01 2.3 36.1 82 -0.5 31.2
03:25 1018 30.06 847 25.01 2.2 35.9 83 -0.4 31.3
03:30 1018 30.06 847 25.01 2.2 35.9 83 -0.5 31.2
03:35 1018 30.06 847 25.01 2.1 35.9 82 -0.6 31
03:40 1018 30.06 847 25.01 2.1 35.8 82 -0.7 30.8
03:45 1018 30.06 847 25.01 2.1 35.8 80 -1 30.2
03:50 1018 30.06 847 25.01 2.1 35.8 80 -1.1 30.1
03:55 1018 30.06 847 25.01 2.1 35.8 80 -1 30.3
04:00 1018 30.06 847 25.01 2.1 35.7 80 -1 30.1
04:05 1018 30.06 847 25.01 2 35.7 79 -1.3 29.7
04:10 1018 30.06 847 25.01 2 35.6 79 -1.3 29.7
04:15 1018 30.06 847 25.01 1.9 35.5 78 -1.6 29.2
04:20 1018 30.06 847 25.01 1.9 35.4 77 -1.8 28.8
04:25 1018 30.06 847 25.01 1.8 35.3 77 -1.7 28.9
04:30 1018 30.06 847 25.01 1.8 35.3 78 -1.6 29
04:35 1018 30.06 847 25.01 1.8 35.2 79 -1.5 29.2
04:40 1018 30.06 847 25.01 1.8 35.2 78 -1.6 29.2
04:45 1018 30.06 847 25.01 1.8 35.2 79 -1.5 29.3
04:50 1018 30.06 847 25.01 1.8 35.2 81 -1.1 30.1
04:55 1018 30.06 847 25.01 1.7 35 83 -0.8 30.5
05:00 1018 30.06 847 25.01 1.5 34.7 87 -0.4 31.3
05:05 1018 30.06 847 25.01 1.3 34.3 89 -0.3 31.5
05:10 1018 30.06 847 25.01 1.2 34.2 90 -0.2 31.7
05:15 1018 30.06 847 25.01 1.3 34.3 90 -0.1 31.7
05:20 1018 30.06 847 25.01 1.4 34.4 90 -0.1 31.8
05:25 1018 30.06 847 25.01 1.4 34.4 90 -0.2 31.7
05:30 1018 30.06 847 25.01 1.4 34.5 89 -0.2 31.6
05:35 1018 30.06 847 25.01 1.4 34.5 89 -0.2 31.6
05:40 1018 30.06 847 25.01 1.3 34.4 89 -0.3 31.5
05:45 1018 30.06 847 25.01 1.3 34.3 89 -0.3 31.5
05:50 1018 30.06 847 25.01 1.3 34.4 89 -0.3 31.5
05:55 1018 30.06 847 25.01 1.3 34.4 89 -0.3 31.5
06:00 1018 30.06 847 25.01 1.2 34.2 89 -0.4 31.3
06:05 1018 30.06 847 25.01 1.2 34.1 89 -0.4 31.2
06:10 1018 30.06 847 25.01 1.1 34 89 -0.5 31.1
06:15 1018 30.06 848 25.04 1.1 34 89 -0.5 31.2
06:20 1018 30.06 848 25.04 1.2 34.1 89 -0.5 31.2
06:25 1018 30.06 848 25.04 1.2 34.1 89 -0.5 31.1
06:30 1018 30.06 848 25.04 1.1 34.1 89 -0.5 31.1
06:35 1018 30.06 848 25.04 1.1 34 89 -0.5 31.1
06:40 1018 30.06 848 25.04 1.1 34 89 -0.5 31.1
06:45 1019 30.09 848 25.04 1.2 34.1 89 -0.5 31.2
06:50 1019 30.09 848 25.04 1.2 34.1 89 -0.5 31.2
06:55 1018 30.06 848 25.04 1.1 34 89 -0.5 31.2
07:00 1019 30.09 848 25.04 1.1 34 89 -0.5 31.1
07:05 1019 30.09 848 25.04 1.1 34 88 -0.6 31
07:10 1019 30.09 848 25.04 1.2 34.1 88 -0.5 31
07:15 1019 30.09 848 25.04 1.2 34.1 88 -0.6 31
07:20 1019 30.09 848 25.04 1.2 34.1 88 -0.5 31
07:25 1019 30.09 848 25.04 1.2 34.1 88 -0.6 31
07:30 1019 30.09 848 25.04 1.2 34.2 88 -0.6 30.9
07:35 1019 30.09 848 25.04 1.2 34.2 88 -0.6 31
07:40 1019 30.09 848 25.04 1.2 34.1 88 -0.6 30.9
07:45 1019 30.09 848 25.04 1.2 34.2 88 -0.6 30.9
07:50 1019 30.09 848 25.04 1.2 34.2 87 -0.6 30.9
07:55 1019 30.09 848 25.04 1.3 34.3 87 -0.6 30.9
08:00 1019 30.09 848 25.04 1.4 34.5 87 -0.5 31
08:05 1019 30.09 848 25.04 1.5 34.7 87 -0.4 31.2
08:10 1019 30.09 848 25.04 1.7 35 85 -0.5 31.1
08:15 1019 30.09 848 25.04 1.7 35.1 86 -0.5 31.2
08:20 1019 30.09 848 25.04 1.7 35.1 86 -0.4 31.3
08:25 1019 30.09 848 25.04 1.8 35.2 85 -0.5 31
08:30 1019 30.09 848 25.04 1.7 35 85 -0.5 31
08:35 1019 30.09 848 25.04 1.7 35 85 -0.5 31.1
08:40 1019 30.09 848 25.04 1.6 35 86 -0.5 31.2
08:45 1019 30.09 848 25.04 1.6 34.8 87 -0.5 31.2
08:50 1019 30.09 848 25.04 1.4 34.5 87 -0.5 31.1
08:55 1019 30.09 848 25.04 1.3 34.4 88 -0.4 31.2
09:00 1019 30.09 848 25.04 1.3 34.3 88 -0.4 31.2
09:05 1019 30.09 848 25.04 1.1 34 89 -0.5 31.1
09:10 1019 30.09 849 25.07 1 33.7 90 -0.5 31.1
09:15 1019 30.09 849 25.07 0.8 33.5 91 -0.5 31.1
09:20 1019 30.09 849 25.07 0.8 33.5 91 -0.5 31.2
09:25 1019 30.09 849 25.07 0.9 33.6 91 -0.4 31.2
09:30 1019 30.09 849 25.07 0.9 33.7 91 -0.4 31.3
09:35 1019 30.09 849 25.07 1 33.7 91 -0.3 31.4
09:40 1020 30.12 849 25.07 1 33.9 91 -0.3 31.5
09:45 1020 30.12 849 25.07 1.1 34.1 91 -0.1 31.7
09:50 1019 30.09 849 25.07 1.4 34.6 91 0 32.1
09:55 1020 30.12 849 25.07 1.5 34.7 89 -0 31.9
10:00 1019 30.09 849 25.07 1.6 34.9 90 0.1 32.1
10:05 1019 30.09 849 25.07 2 35.6 88 0.2 32.4
10:10 1020 30.12 849 25.07 2 35.6 87 0 32
10:15 1019 30.09 849 25.07 2 35.6 87 0 32.1
10:20 1019 30.09 849 25.07 2 35.5 87 0.1 32.1
10:25 1019 30.09 849 25.07 2 35.6 86 -0.1 31.8
10:30 1019 30.09 849 25.07 1.9 35.4 86 -0.2 31.7
10:35 1020 30.12 849 25.07 2 35.5 87 0.1 32.2
10:40 1020 30.12 849 25.07 2.1 35.7 85 -0.1 31.7
10:45 1019 30.09 849 25.07 2 35.6 87 0.1 32.2
10:50 1020 30.12 849 25.07 2.2 35.9 87 0.2 32.4
10:55 1020 30.12 849 25.07 2.2 35.9 86 0.1 32.1
11:00 1019 30.09 849 25.07 2.2 36 85 -0.1 31.9
11:05 1019 30.09 849 25.07 2.5 36.4 85 0.2 32.4
11:10 1020 30.12 849 25.07 2.7 36.9 84 0.3 32.6
11:15 1020 30.12 849 25.07 2.9 37.2 85 0.6 33.1
11:20 1020 30.12 849 25.07 3 37.4 82 0.2 32.4
11:25 1020 30.12 849 25.07 3 37.4 81 0 32
11:30 1020 30.12 849 25.07 3.3 37.9 82 0.5 32.9
11:35 1020 30.12 849 25.07 3.2 37.8 81 0.3 32.5
11:40 1020 30.12 849 25.07 3.2 37.8 81 0.3 32.5
11:45 1020 30.12 849 25.07 3.7 38.7 82 0.9 33.6
11:50 1020 30.12 849 25.07 3.7 38.6 81 0.8 33.4
11:55 1019 30.09 849 25.07 3.6 38.5 81 0.6 33.1
12:00 1019 30.09 849 25.07 3.4 38.2 80 0.3 32.5
12:05 1019 30.09 849 25.07 3.7 38.7 79 0.4 32.7
12:10 1019 30.09 849 25.07 4 39.1 79 0.6 33.1
12:15 1019 30.09 849 25.07 4.5 40 75 0.4 32.8
12:20 1019 30.09 849 25.07 4.3 39.7 77 0.6 33
12:25 1019 30.09 849 25.07 4.2 39.5 73 -0.1 31.7
12:30 1020 30.12 849 25.07 4.2 39.5 74 0 32.1
12:35 1020 30.12 849 25.07 4 39.2 73 -0.3 31.4
12:40 1020 30.12 849 25.07 4.3 39.7 75 0.2 32.4
12:45 1020 30.12 849 25.07 4.4 40 68 -0.9 30.3
12:50 1020 30.12 849 25.07 4.3 39.7 67 -1.2 29.8
12:55 1020 30.12 849 25.07 4.2 39.6 69 -1 30.3
13:00 1020 30.12 849 25.07 4.7 40.4 69 -0.6 31
13:05 1020 30.12 849 25.07 4.7 40.5 67 -0.8 30.5
13:10 1020 30.12 849 25.07 5.2 41.4 63 -1.2 29.8
13:15 1020 30.12 849 25.07 6.2 43.1 58 -1.5 29.2
13:20 1020 30.12 849 25.07 6.1 43.1 57 -1.7 29
13:25 1020 30.12 849 25.07 5.7 42.2 57 -2.2 28.1
13:30 1020 30.12 849 25.07 5.4 41.8 58 -2.2 28
13:35 1019 30.09 849 25.07 5.6 42.1 55 -2.7 27.2
13:40 1020 30.12 849 25.07 5.7 42.2 55 -2.6 27.3
13:45 1020 30.12 849 25.07 5.8 42.5 55 -2.5 27.6
13:50 1020 30.12 849 25.07 6.4 43.5 52 -2.7 27.2
13:55 1020 30.12 849 25.07 6.5 43.7 49 -3.4 25.9
14:00 1020 30.12 849 25.07 6.2 43.2 47 -4.1 24.6
14:05 1020 30.12 849 25.07 6.6 43.8 47 -3.9 25
14:10 1019 30.09 849 25.07 6.5 43.7 46 -4.2 24.4
14:15 1019 30.09 849 25.07 6.4 43.6 46 -4.2 24.4
14:20 1019 30.09 849 25.07 6 42.7 47 -4.4 24.1
14:25 1019 30.09 849 25.07 5.7 42.2 48 -4.6 23.7
14:30 1020 30.12 849 25.07 5.5 41.8 49 -4.3 24.2
14:35 1020 30.12 849 25.07 4.7 40.4 67 -0.9 30.3
14:40 1020 30.12 849 25.07 2.8 37 72 -1.7 28.9
14:45 1020 30.12 849 25.07 2.4 36.4 72 -2.1 28.3
14:50 1020 30.12 849 25.07 2.4 36.3 74 -1.8 28.7
14:55 1020 30.12 849 25.07 2.6 36.7 71 -2.1 28.2
15:00 1020 30.12 849 25.07 2.7 36.9 67 -2.7 27.1
15:05 1020 30.12 849 25.07 3 37.4 68 -2.4 27.8
15:10 1020 30.12 849 25.07 3.6 38.5 65 -2.4 27.6
15:15 1020 30.12 849 25.07 4.1 39.3 60 -3.1 26.5
15:20 1020 30.12 849 25.07 4.5 40 60 -2.7 27.2
15:25 1020 30.12 850 25.1 4.9 40.9 57 -2.9 26.9
15:30 1020 30.12 849 25.07 5.4 41.8 55 -3 26.7
15:35 1020 30.12 849 25.07 5.5 42 54 -2.9 26.7
15:40 1020 30.12 849 25.07 5.6 42.1 54 -3 26.5
15:45 1020 30.12 849 25.07 5.3 41.5 57 -2.7 27.2
15:50 1020 30.12 849 25.07 4.8 40.7 57 -2.9 26.8
15:55 1020 30.12 849 25.07 5 41 54 -3.4 25.9
16:00 1020 30.12 849 25.07 5.2 41.3 57 -2.7 27.2
16:05 1020 30.12 850 25.1 5.1 41.1 54 -3.4 25.8
16:10 1020 30.12 850 25.1 5.1 41.2 50 -4.5 24
16:15 1020 30.12 850 25.1 5.1 41.2 48 -4.9 23.2
16:20 1020 30.12 850 25.1 5.2 41.4 54 -3.4 25.9
16:25 1021 30.15 850 25.1 4.6 40.2 62 -2 28.3
16:30 1021 30.15 850 25.1 4 39.1 65 -2 28.3
16:35 1021 30.15 850 25.1 4.1 39.5 62 -2.4 27.6
16:40 1021 30.15 850 25.1 4.5 40.1 60 -2.5 27.6
16:45 1021 30.15 850 25.1 4.7 40.4 59 -2.6 27.4
16:50 1021 30.15 850 25.1 4.8 40.7 58 -2.7 27.2
16:55 1021 30.15 850 25.1 4.9 40.8 57 -2.9 26.8
17:00 1021 30.15 850 25.1 4.9 40.8 54 -3.5 25.7
17:05 1021 30.15 850 25.1 5 41 55 -3.3 26.1
17:10 1021 30.15 850 25.1 5 41 56 -3 26.6
17:15 1021 30.15 850 25.1 4.9 40.9 53 -3.8 25.1
17:20 1021 30.15 850 25.1 4.8 40.7 49 -4.9 23.2
17:25 1021 30.15 850 25.1 4.8 40.6 48 -5.4 22.2
17:30 1021 30.15 850 25.1 4.8 40.6 48 -5.3 22.5
17:35 1021 30.15 850 25.1 4.8 40.6 50 -4.8 23.3
17:40 1021 30.15 850 25.1 4.5 40.1 58 -3.1 26.5
17:45 1021 30.15 850 25.1 3.5 38.3 64 -2.7 27.1
17:50 1021 30.15 850 25.1 2.9 37.3 68 -2.3 27.8
17:55 1021 30.15 850 25.1 2.6 36.6 70 -2.3 27.9
18:00 1021 30.15 851 25.13 2.7 36.8 70 -2.2 28.1
18:05 1021 30.15 851 25.13 2.6 36.8 70 -2.3 27.8
18:10 1021 30.15 851 25.13 2.6 36.6 70 -2.4 27.7
18:15 1021 30.15 851 25.13 2.6 36.7 70 -2.4 27.7
18:20 1021 30.15 851 25.13 2.6 36.7 69 -2.4 27.7
18:25 1021 30.15 851 25.13 2.6 36.7 69 -2.5 27.6
18:30 1021 30.15 851 25.13 2.6 36.6 71 -2.2 28
18:35 1021 30.15 851 25.13 2.6 36.7 69 -2.4 27.6
18:40 1021 30.15 851 25.13 2.8 37 68 -2.5 27.5
18:45 1021 30.15 851 25.13 2.8 37.1 69 -2.3 27.8
18:50 1021 30.15 851 25.13 2.8 37 69 -2.4 27.7
18:55 1022 30.18 851 25.13 2.7 36.9 70 -2.2 28
19:00 1022 30.18 851 25.13 2.7 36.8 69 -2.5 27.5
19:05 1022 30.18 851 25.13 2.7 36.8 68 -2.6 27.4
19:10 1022 30.18 851 25.13 2.7 36.9 67 -2.7 27.2
19:15 1022 30.18 851 25.13 2.9 37.2 67 -2.7 27.2
19:20 1022 30.18 851 25.13 3 37.5 66 -2.7 27.1
19:25 1022 30.18 851 25.13 3 37.5 65 -2.8 26.9
19:30 1022 30.18 851 25.13 3 37.4 63 -3.3 26.1
19:35 1022 30.18 851 25.13 3.1 37.6 62 -3.4 25.9
19:40 1022 30.18 851 25.13 3.2 37.8 62 -3.4 25.8
19:45 1022 30.18 851 25.13 3.1 37.6 64 -3 26.7
19:50 1022 30.18 851 25.13 3 37.4 63 -3.3 26
19:55 1022 30.18 851 25.13 3 37.4 63 -3.3 26.1
20:00 1022 30.18 851 25.13 2.8 37.1 64 -3.3 26.1
20:05 1022 30.18 852 25.16 2.6 36.7 65 -3.3 26
20:10 1022 30.18 852 25.16 2.6 36.6 65 -3.3 26.1
20:15 1022 30.18 852 25.16 2.6 36.6 65 -3.3 26.1
20:20 1022 30.18 852 25.16 2.6 36.7 65 -3.3 26.1
20:25 1022 30.18 852 25.16 2.6 36.7 66 -3.2 26.2
20:30 1022 30.18 852 25.16 2.6 36.7 66 -3.2 26.2
20:35 1022 30.18 852 25.16 2.6 36.6 67 -3 26.6
20:40 1022 30.18 852 25.16 2.6 36.6 67 -3 26.6
20:45 1022 30.18 852 25.16 2.5 36.6 67 -3 26.7
20:50 1022 30.18 852 25.16 2.5 36.5 68 -2.9 26.9
20:55 1022 30.18 852 25.16 2.5 36.5 68 -2.9 26.8
21:00 1023 30.21 852 25.16 2.4 36.4 69 -2.7 27.1
21:05 1023 30.21 852 25.16 2.4 36.4 69 -2.7 27.1
21:10 1023 30.21 852 25.16 2.4 36.3 69 -2.7 27.1
21:15 1023 30.21 852 25.16 2.2 36 70 -2.6 27.3
21:20 1023 30.21 852 25.16 2 35.7 71 -2.8 27
21:25 1023 30.21 852 25.16 2 35.6 70 -2.9 26.7
21:30 1023 30.21 852 25.16 2.1 35.8 69 -3.1 26.5
21:35 1023 30.21 852 25.16 2.2 35.9 68 -3.1 26.4
21:40 1023 30.21 852 25.16 2.2 36 68 -3.1 26.5
21:45 1023 30.21 852 25.16 2.3 36.1 67 -3.2 26.2
21:50 1023 30.21 852 25.16 2.3 36.2 67 -3.2 26.3
21:55 1023 30.21 852 25.16 2.3 36.1 67 -3.3 26.1
22:00 1023 30.21 852 25.16 2.3 36.2 66 -3.3 26
22:05 1023 30.21 852 25.16 2.4 36.3 66 -3.3 26
22:10 1023 30.21 852 25.16 2.4 36.4 66 -3.2 26.2
22:15 1023 30.21 852 25.16 2.4 36.3 66 -3.2 26.2
22:20 1023 30.21 852 25.16 2.4 36.2 67 -3.1 26.5
22:25 1023 30.21 852 25.16 2.2 35.9 68 -3.1 26.4
22:30 1023 30.21 852 25.16 2.1 35.8 68 -3.2 26.3
22:35 1023 30.21 852 25.16 2.1 35.8 67 -3.3 26.1
22:40 1023 30.21 852 25.16 2.3 36.1 66 -3.4 26
22:45 1023 30.21 852 25.16 2.4 36.2 66 -3.3 26
22:50 1023 30.21 852 25.16 2.4 36.3 66 -3.4 25.9
22:55 1023 30.21 852 25.16 2.4 36.2 66 -3.3 26
23:00 1023 30.21 852 25.16 2.3 36.1 67 -3.3 26.1
23:05 1023 30.21 852 25.16 2.1 35.9 68 -3.2 26.2
23:10 1023 30.21 852 25.16 2 35.7 68 -3.3 26
23:15 1023 30.21 852 25.16 2 35.7 68 -3.2 26.2
23:20 1023 30.21 852 25.16 2 35.6 69 -3.2 26.3
23:25 1023 30.21 852 25.16 1.8 35.2 70 -3.2 26.2
23:30 1023 30.21 852 25.16 1.6 34.9 71 -3.1 26.4
23:35 1023 30.21 852 25.16 1.4 34.4 72 -3.1 26.4
23:40 1023 30.21 852 25.16 1.3 34.4 72 -3.3 26.1
23:45 1023 30.21 852 25.16 1.5 34.6 71 -3.3 26.1
23:50 1023 30.21 852 25.16 1.7 35 69 -3.4 25.9
23:55 1023 30.21 852 25.16 1.8 35.3 69 -3.3 26.1
24:00 1023 30.21 852 25.16 1.9 35.4 69 -3.2 26.2